Norton Hill, New York
Current Conditions -  °F | °C
As of 4:51 PM on Wednesday 22 Oct 2014 (Local Time) from KALB Reporting Station
Light Rain Light Rain  
Wind Chill: 51°   Ceiling: 1700
Heat Index: 51°   Visibility: 10mi
Dew Point: 45°   Wind: 14mph
Humidity: 80%   Direction: 20°NNE
Pressure: 30.01"   Gusts: 24mph
Location:  42.4169°N, 74.0155°W
Report Text: KALB 222051Z 02012G21KT 10SM -RA BKN017 OVC036 11/07 A3001 RMK AO2 RAB47 SLP163 P0000 60000 T01060072 56012
Loading
Personal Weather Stations






























Interactive Weather Map
Tropical Storm Tracking
New forecast layout! Learn more

10-Day Weather Forecast

Advertisements
Track Severe Weather on mobile